Time;durP1;ratioP1;P1;durP2;ratioP2;P2;SDS_P1;SDS_P2;PMS_P1;PMS_P2;Temp;Humidity;BMP_temperature;BMP_pressure;BME280_temperature;BME280_humidity;BME280_pressure;Samples;Min_cycle;Max_cycle;Signal;HPM_P1;HPM_P2
2022/08/05 00:00:14;;;;;;;2.47;1.48;;;28.60;51.40;;;;;;6245777;22;20004;-68
2022/08/05 00:02:40;;;;;;;4.47;1.40;;;28.50;51.60;;;;;;6245670;22;20009;-70
2022/08/05 00:05:06;;;;;;;3.85;1.45;;;28.50;51.90;;;;;;6245538;23;20035;-69
2022/08/05 00:07:32;;;;;;;2.33;1.35;;;28.50;52.70;;;;;;6245305;23;20007;-65
2022/08/05 00:09:57;;;;;;;12.65;1.60;;;28.40;52.40;;;;;;6245478;23;20004;-69
2022/08/05 00:12:23;;;;;;;2.60;1.17;;;28.30;51.60;;;;;;6245460;22;19997;-71
2022/08/05 00:14:49;;;;;;;2.50;1.27;;;28.30;51.80;;;;;;6245403;23;20023;-72
2022/08/05 00:17:14;;;;;;;1.65;1.30;;;28.30;52.80;;;;;;6245475;23;20486;-65
2022/08/05 00:19:40;;;;;;;11.23;1.67;;;28.30;53.50;;;;;;6245314;23;20057;-66
2022/08/05 00:22:06;;;;;;;2.45;1.50;;;28.20;53.60;;;;;;6245919;22;20008;-66
2022/08/05 00:24:31;;;;;;;7.45;1.30;;;28.20;53.30;;;;;;6245436;22;20008;-65
2022/08/05 00:26:58;;;;;;;4.15;1.40;;;28.20;52.90;;;;;;6245259;23;20099;-66
2022/08/05 00:29:24;;;;;;;17.92;1.73;;;28.10;52.70;;;;;;6245923;22;20031;-65
2022/08/05 00:31:50;;;;;;;6.20;1.60;;;28.10;53.50;;;;;;6245409;22;20423;-73
2022/08/05 00:34:16;;;;;;;6.63;1.40;;;28.00;53.80;;;;;;6244892;23;20384;-67
2022/08/05 00:36:41;;;;;;;3.95;1.40;;;28.00;53.60;;;;;;6245408;22;20038;-73
2022/08/05 00:39:08;;;;;;;6.63;1.52;;;28.00;52.80;;;;;;6246666;23;20083;-66
2022/08/05 00:41:34;;;;;;;3.50;1.55;;;28.00;52.60;;;;;;6247005;22;20000;-66
2022/08/05 00:44:00;;;;;;;7.60;1.60;;;28.00;52.70;;;;;;6246875;22;20027;-65
2022/08/05 00:46:26;;;;;;;4.90;1.50;;;27.90;52.70;;;;;;6247106;22;20000;-66
2022/08/05 00:48:52;;;;;;;2.47;1.50;;;27.90;53.20;;;;;;6247240;23;20054;-66
2022/08/05 00:51:21;;;;;;;4.97;1.50;;;27.90;53.70;;;;;;6247394;22;20054;-66
2022/08/05 00:53:48;;;;;;;2.15;1.60;;;27.90;53.60;;;;;;6247642;22;20339;-66
2022/08/05 00:56:15;;;;;;;3.92;2.00;;;27.90;53.40;;;;;;6247081;22;20076;-65
2022/08/05 00:58:41;;;;;;;3.85;1.30;;;27.90;53.10;;;;;;6244383;22;20000;-65
2022/08/05 01:01:08;;;;;;;5.75;1.52;;;27.90;52.90;;;;;;6243779;22;20011;-66
2022/08/05 01:03:33;;;;;;;2.50;1.33;;;27.80;52.90;;;;;;6243764;22;20014;-66
2022/08/05 01:05:59;;;;;;;6.20;1.80;;;27.80;53.10;;;;;;6246458;22;20031;-65
2022/08/05 01:08:25;;;;;;;5.20;1.60;;;27.80;53.10;;;;;;6246957;23;20000;-64
2022/08/05 01:10:58;;;;;;;4.68;1.40;;;27.80;53.00;;;;;;6246703;23;20008;-66
2022/08/05 01:13:47;;;;;;;3.85;1.48;;;27.80;52.80;;;;;;6246292;22;20068;-65
2022/08/05 01:16:54;;;;;;;4.78;1.65;;;27.80;53.10;;;;;;6246723;22;20434;-72
2022/08/05 01:19:25;;;;;;;4.70;1.60;;;27.70;53.70;;;;;;6213756;23;20008;-73
2022/08/05 01:22:35;;;;;;;3.08;1.40;;;27.70;52.90;;;;;;6213260;23;20092;-66
2022/08/05 01:25:10;;;;;;;3.53;1.40;;;27.70;53.50;;;;;;6222623;22;20016;-66
2022/08/05 01:28:01;;;;;;;3.30;1.83;;;27.70;53.50;;;;;;6246405;23;20028;-65
2022/08/05 01:30:30;;;;;;;4.77;1.50;;;27.70;52.90;;;;;;6247071;22;20027;-65
2022/08/05 01:32:58;;;;;;;4.38;1.40;;;27.60;53.30;;;;;;6246810;22;20007;-65
2022/08/05 01:35:26;;;;;;;4.18;1.50;;;27.60;53.70;;;;;;6246280;22;20439;-65
2022/08/05 01:37:55;;;;;;;3.63;1.48;;;27.50;53.40;;;;;;6246456;22;20015;-73
2022/08/05 01:40:27;;;;;;;2.83;1.83;;;27.50;53.80;;;;;;6247230;22;20008;-66
2022/08/05 01:42:54;;;;;;;5.68;1.40;;;27.60;53.80;;;;;;6246785;22;20015;-65
2022/08/05 01:45:22;;;;;;;6.60;1.50;;;27.50;53.80;;;;;;6246387;22;20488;-66
2022/08/05 01:47:50;;;;;;;2.17;1.30;;;27.50;54.70;;;;;;6246839;22;20011;-66
2022/08/05 01:50:26;;;;;;;2.60;1.30;;;27.50;54.20;;;;;;6246398;22;20008;-65
2022/08/05 01:52:55;;;;;;;5.82;1.63;;;27.50;53.60;;;;;;6246952;22;20008;-66
2022/08/05 01:55:23;;;;;;;5.35;1.50;;;27.50;53.40;;;;;;6246445;22;20015;-66
2022/08/05 01:57:52;;;;;;;6.80;1.58;;;27.50;53.30;;;;;;6246728;22;20008;-66
2022/08/05 02:00:18;;;;;;;4.28;1.67;;;27.50;53.70;;;;;;6246544;22;20438;-66
2022/08/05 02:03:20;;;;;;;2.80;1.50;;;27.50;53.20;;;;;;6246804;22;20000;-64
2022/08/05 02:05:47;;;;;;;6.32;1.40;;;27.50;53.00;;;;;;6244857;23;20016;-66
2022/08/05 02:08:13;;;;;;;3.75;1.45;;;27.40;52.80;;;;;;6246316;22;20000;-66
2022/08/05 02:10:46;;;;;;;4.15;1.42;;;27.40;52.60;;;;;;6246618;23;20454;-69
2022/08/05 02:13:15;;;;;;;2.90;1.38;;;27.40;52.60;;;;;;6246465;22;20023;-65
2022/08/05 02:15:50;;;;;;;4.93;1.33;;;27.30;52.80;;;;;;6246260;22;20054;-66
2022/08/05 02:18:29;;;;;;;2.55;1.50;;;27.30;52.90;;;;;;6246420;22;19996;-66
2022/08/05 02:21:15;;;;;;;4.35;1.40;;;27.20;52.90;;;;;;6246893;23;20362;-67
2022/08/05 02:23:43;;;;;;;2.38;1.40;;;27.20;53.10;;;;;;6244861;22;20039;-67
2022/08/05 02:26:11;;;;;;;6.05;1.90;;;27.10;53.20;;;;;;6245734;22;20071;-66
2022/08/05 02:28:40;;;;;;;2.55;1.40;;;27.10;53.40;;;;;;6246019;22;20023;-68
2022/08/05 02:31:21;;;;;;;6.00;1.60;;;27.10;53.60;;;;;;6246356;22;20005;-74
2022/08/05 02:33:51;;;;;;;5.00;1.65;;;27.00;53.70;;;;;;6246042;22;20012;-72
2022/08/05 02:36:20;;;;;;;3.97;1.52;;;27.00;54.30;;;;;;6246402;22;20008;-73
2022/08/05 02:38:47;;;;;;;4.35;1.55;;;27.00;54.30;;;;;;6246697;22;20012;-72
2022/08/05 02:41:18;;;;;;;4.22;1.67;;;26.90;54.20;;;;;;6246660;22;20050;-67
2022/08/05 02:43:46;;;;;;;2.65;1.50;;;26.90;54.30;;;;;;6245817;22;20043;-66
2022/08/05 02:46:17;;;;;;;5.30;1.80;;;26.90;54.40;;;;;;6246414;22;20055;-66
2022/08/05 02:48:45;;;;;;;3.05;1.52;;;26.90;55.00;;;;;;6246366;22;20007;-66
2022/08/05 02:51:12;;;;;;;5.43;1.60;;;26.80;55.20;;;;;;6246588;22;20008;-66
2022/08/05 02:53:39;;;;;;;4.07;1.80;;;26.90;55.50;;;;;;6246013;22;20007;-66
2022/08/05 02:56:06;;;;;;;5.15;1.60;;;26.80;55.00;;;;;;6246335;22;20008;-67
2022/08/05 02:58:33;;;;;;;7.13;2.00;;;26.80;54.60;;;;;;6246082;22;20007;-67
2022/08/05 03:01:01;;;;;;;4.13;1.40;;;26.80;54.60;;;;;;6245810;22;20003;-67
2022/08/05 03:03:28;;;;;;;3.67;1.55;;;26.70;54.60;;;;;;6245515;22;20027;-67
2022/08/05 03:05:56;;;;;;;6.22;1.50;;;26.70;54.70;;;;;;6246066;22;20007;-66
2022/08/05 03:08:23;;;;;;;7.18;1.98;;;26.70;54.60;;;;;;6246137;22;19996;-67
2022/08/05 03:10:49;;;;;;;4.20;1.50;;;26.70;54.60;;;;;;6245867;22;20004;-66
2022/08/05 03:13:16;;;;;;;8.73;1.60;;;26.60;54.70;;;;;;6246185;22;20330;-73
2022/08/05 03:15:46;;;;;;;4.30;1.70;;;26.60;54.80;;;;;;6245989;22;20004;-73
2022/08/05 03:18:12;;;;;;;3.65;1.65;;;26.60;55.00;;;;;;6245835;22;20003;-72
2022/08/05 03:20:38;;;;;;;3.45;1.60;;;26.50;55.00;;;;;;6245719;22;20004;-69
2022/08/05 03:23:09;;;;;;;8.02;1.98;;;26.50;55.20;;;;;;6245457;23;19996;-67
2022/08/05 03:25:35;;;;;;;8.98;2.33;;;26.50;55.20;;;;;;6246166;22;20151;-66
2022/08/05 03:28:04;;;;;;;7.05;2.00;;;26.50;55.40;;;;;;6245706;22;20013;-71
2022/08/05 03:30:31;;;;;;;5.40;1.67;;;26.50;55.50;;;;;;6245809;22;20004;-73
2022/08/05 03:33:02;;;;;;;3.22;1.80;;;26.50;55.80;;;;;;6246041;22;20012;-67
2022/08/05 03:35:28;;;;;;;4.68;1.60;;;26.50;55.90;;;;;;6246145;22;20012;-66
2022/08/05 03:37:58;;;;;;;6.53;2.15;;;26.40;56.00;;;;;;6245817;22;20000;-67
2022/08/05 03:40:24;;;;;;;7.47;2.00;;;26.40;55.90;;;;;;6246234;22;20077;-67
2022/08/05 03:42:50;;;;;;;2.58;1.98;;;26.40;55.80;;;;;;6245733;22;20432;-71
2022/08/05 03:45:15;;;;;;;5.05;2.00;;;26.40;55.80;;;;;;6245827;23;20095;-73
2022/08/05 03:47:41;;;;;;;6.22;2.03;;;26.40;55.70;;;;;;6245775;22;20335;-66
2022/08/05 03:50:07;;;;;;;3.88;1.70;;;26.40;55.60;;;;;;6245579;23;20046;-66
2022/08/05 03:52:38;;;;;;;5.75;2.03;;;26.40;55.60;;;;;;6245557;22;20015;-73
2022/08/05 03:55:10;;;;;;;11.00;1.98;;;26.40;55.50;;;;;;6245533;22;20000;-71
2022/08/05 03:57:38;;;;;;;;;;;26.40;56.00;;;;;;6246046;22;20067;-71
2022/08/05 04:00:05;;;;;;;8.18;2.13;;;26.40;55.90;;;;;;6245508;22;19899;-66
2022/08/05 04:02:34;;;;;;;6.13;2.05;;;26.40;55.80;;;;;;6245845;22;20027;-66
2022/08/05 04:05:01;;;;;;;11.82;2.22;;;26.30;56.10;;;;;;6245551;22;20016;-66
2022/08/05 04:07:27;;;;;;;4.97;2.03;;;26.30;56.30;;;;;;6245305;22;20402;-66
2022/08/05 04:09:54;;;;;;;7.43;1.95;;;26.30;56.30;;;;;;6245693;23;20012;-68
2022/08/05 04:12:20;;;;;;;7.47;2.17;;;26.30;56.20;;;;;;6245531;23;20308;-68
2022/08/05 04:14:46;;;;;;;10.93;1.75;;;26.30;56.40;;;;;;6247387;22;20008;-67
2022/08/05 04:17:12;;;;;;;8.13;2.50;;;26.30;56.70;;;;;;6247763;22;20031;-77
2022/08/05 04:19:43;;;;;;;9.18;2.95;;;26.30;57.30;;;;;;6247515;23;20007;-77
2022/08/05 04:22:08;;;;;;;6.28;1.77;;;26.30;58.30;;;;;;6247676;22;20000;-68
2022/08/05 04:24:34;;;;;;;5.65;2.05;;;26.30;58.20;;;;;;6247279;23;20334;-68
2022/08/05 04:27:00;;;;;;;5.55;1.75;;;26.30;58.20;;;;;;6247113;23;20023;-72
2022/08/05 04:29:25;;;;;;;6.70;1.92;;;26.20;57.70;;;;;;6247838;23;20481;-71
2022/08/05 04:31:51;;;;;;;7.72;2.10;;;26.20;57.80;;;;;;6247735;23;20475;-74
2022/08/05 04:34:17;;;;;;;7.85;1.70;;;26.20;57.40;;;;;;6247349;23;20102;-68
2022/08/05 04:36:42;;;;;;;6.00;2.00;;;26.20;56.60;;;;;;6247357;23;19996;-68
2022/08/05 04:39:08;;;;;;;18.65;2.65;;;26.20;56.30;;;;;;6247272;23;19997;-69
2022/08/05 04:41:34;;;;;;;5.88;1.80;;;26.20;56.10;;;;;;6247613;23;20319;-78
2022/08/05 04:43:59;;;;;;;9.05;2.03;;;26.20;55.80;;;;;;6247052;22;20447;-68
2022/08/05 04:46:25;;;;;;;6.45;1.67;;;26.20;55.70;;;;;;6247477;22;20004;-68
2022/08/05 04:48:51;;;;;;;5.90;1.73;;;26.20;55.70;;;;;;6247548;23;20016;-68
2022/08/05 04:51:16;;;;;;;10.38;2.42;;;26.10;56.10;;;;;;6247766;22;20423;-68
2022/08/05 04:53:42;;;;;;;6.43;2.45;;;26.10;56.10;;;;;;6247240;23;20026;-75
2022/08/05 04:56:08;;;;;;;5.78;2.00;;;26.10;55.90;;;;;;6246891;23;20006;-73
2022/08/05 04:58:34;;;;;;;6.82;2.00;;;26.10;55.80;;;;;;6246997;23;20415;-72
2022/08/05 05:00:59;;;;;;;15.15;2.75;;;26.10;55.60;;;;;;6247123;23;20063;-72
2022/08/05 05:03:25;;;;;;;9.80;1.70;;;26.10;55.90;;;;;;6247611;22;20012;-72
2022/08/05 05:05:51;;;;;;;10.80;1.95;;;26.10;55.70;;;;;;6247271;23;20323;-75
2022/08/05 05:08:16;;;;;;;7.07;1.88;;;26.20;55.60;;;;;;6247308;23;20095;-71
2022/08/05 05:10:44;;;;;;;6.85;1.73;;;26.20;55.90;;;;;;6246512;23;20012;-71
2022/08/05 05:13:15;;;;;;;15.13;2.22;;;26.20;56.20;;;;;;6246585;22;20050;-71
2022/08/05 05:15:42;;;;;;;5.47;1.73;;;26.20;56.20;;;;;;6245996;22;20008;-71
2022/08/05 05:18:08;;;;;;;6.43;2.03;;;26.20;56.10;;;;;;6245643;22;20000;-72
2022/08/05 05:20:34;;;;;;;11.65;2.55;;;26.20;56.10;;;;;;6246355;22;20324;-76
2022/08/05 05:23:05;;;;;;;8.82;2.40;;;26.30;56.20;;;;;;6246195;23;20008;-76
2022/08/05 05:25:30;;;;;;;12.60;2.40;;;26.30;56.10;;;;;;6246100;22;20012;-71
2022/08/05 05:27:56;;;;;;;12.43;2.72;;;26.30;56.20;;;;;;6247045;23;20046;-71
2022/08/05 05:30:22;;;;;;;9.13;1.92;;;26.40;56.60;;;;;;6247482;22;20482;-75
2022/08/05 05:32:48;;;;;;;7.35;2.15;;;26.40;56.70;;;;;;6246987;23;20378;-74
2022/08/05 05:35:15;;;;;;;7.13;2.20;;;26.40;57.00;;;;;;6247159;22;20000;-71
2022/08/05 05:37:48;;;;;;;6.93;2.15;;;26.50;57.20;;;;;;6247292;22;20004;-71
2022/08/05 05:40:15;;;;;;;6.30;2.20;;;26.50;57.00;;;;;;6247027;22;20323;-75
2022/08/05 05:42:41;;;;;;;7.07;2.10;;;26.50;56.90;;;;;;6246849;22;20003;-75
2022/08/05 05:45:07;;;;;;;8.35;2.20;;;26.60;57.00;;;;;;6246706;23;20012;-76
2022/08/05 05:47:34;;;;;;;2.95;1.80;;;26.60;57.20;;;;;;6246455;22;20438;-71
2022/08/05 05:50:00;;;;;;;7.88;2.20;;;26.70;57.30;;;;;;6246884;22;20308;-71
2022/08/05 05:52:26;;;;;;;7.15;1.90;;;26.80;57.20;;;;;;6247034;22;20027;-72
2022/08/05 05:54:51;;;;;;;4.53;2.03;;;26.80;57.30;;;;;;6246668;23;19997;-72
2022/08/05 05:57:18;;;;;;;9.60;2.28;;;26.90;56.80;;;;;;6246910;23;20084;-71
2022/08/05 05:59:44;;;;;;;5.82;2.38;;;26.90;56.40;;;;;;6246624;22;20000;-71
2022/08/05 06:02:10;;;;;;;2.28;1.65;;;26.90;56.10;;;;;;6246701;22;20404;-74
2022/08/05 06:04:35;;;;;;;7.38;1.73;;;27.00;55.40;;;;;;6246388;22;20008;-75
2022/08/05 06:07:01;;;;;;;7.95;1.88;;;27.00;55.30;;;;;;6247047;23;20046;-71
2022/08/05 06:09:27;;;;;;;4.65;1.70;;;27.10;55.20;;;;;;6246500;22;20442;-72
2022/08/05 06:11:53;;;;;;;5.45;2.08;;;27.10;55.20;;;;;;6246169;23;20024;-72
2022/08/05 06:14:18;;;;;;;7.05;1.88;;;27.20;55.40;;;;;;6246142;22;20007;-71
2022/08/05 06:16:44;;;;;;;5.35;1.90;;;27.20;55.20;;;;;;6246331;23;20004;-71
2022/08/05 06:19:10;;;;;;;6.15;2.10;;;27.30;55.20;;;;;;6246347;23;20010;-71
2022/08/05 06:21:36;;;;;;;4.13;2.00;;;27.30;55.10;;;;;;6246509;23;20034;-75
2022/08/05 06:24:02;;;;;;;2.85;1.80;;;27.30;54.70;;;;;;6246093;22;20014;-71
2022/08/05 06:26:28;;;;;;;5.32;2.25;;;27.30;54.70;;;;;;6246335;23;20072;-72
2022/08/05 06:28:53;;;;;;;7.00;2.00;;;27.40;54.50;;;;;;6246074;23;20034;-71
2022/08/05 06:31:19;;;;;;;4.25;1.50;;;27.40;54.30;;;;;;6246211;23;20001;-71
2022/08/05 06:33:45;;;;;;;2.92;1.95;;;27.50;54.10;;;;;;6246101;23;20000;-75
2022/08/05 06:36:10;;;;;;;3.50;1.83;;;27.60;54.20;;;;;;6245799;23;20007;-74
2022/08/05 06:38:36;;;;;;;7.43;1.77;;;27.60;54.10;;;;;;6246247;23;20094;-70
2022/08/05 06:41:02;;;;;;;5.65;1.70;;;27.60;54.10;;;;;;6246018;23;20004;-70
2022/08/05 06:43:28;;;;;;;3.95;1.77;;;27.70;54.30;;;;;;6245924;22;19996;-70
2022/08/05 06:45:53;;;;;;;4.50;1.60;;;27.70;54.30;;;;;;6246361;23;20031;-70
2022/08/05 06:48:19;;;;;;;3.88;1.65;;;27.80;54.10;;;;;;6246028;23;20331;-71
2022/08/05 06:50:45;;;;;;;5.75;1.88;;;27.80;53.80;;;;;;6245988;22;20419;-70
2022/08/05 06:53:12;;;;;;;3.80;1.90;;;27.90;53.80;;;;;;6246209;23;19996;-71
2022/08/05 06:55:38;;;;;;;4.13;1.95;;;27.90;53.90;;;;;;6245617;22;20004;-73
2022/08/05 06:58:04;;;;;;;5.88;1.90;;;28.00;54.00;;;;;;6245857;23;20008;-74
2022/08/05 07:00:30;;;;;;;5.70;2.00;;;28.00;53.60;;;;;;6246053;23;20493;-72
2022/08/05 07:02:56;;;;;;;3.67;1.60;;;28.10;53.50;;;;;;6245905;22;20374;-72
2022/08/05 07:05:22;;;;;;;4.25;1.42;;;28.10;53.20;;;;;;6245738;22;20040;-71
2022/08/05 07:07:47;;;;;;;5.75;2.50;;;28.10;52.70;;;;;;6245901;23;20056;-71
2022/08/05 07:10:13;;;;;;;3.22;1.80;;;28.20;52.60;;;;;;6245612;22;20008;-71
2022/08/05 07:18:08;;;;;;;7.88;1.88;;;28.30;52.90;;;;;;6245636;23;20079;-74
2022/08/05 07:20:33;;;;;;;5.13;1.75;;;28.40;52.40;;;;;;6245838;23;20395;-69
2022/08/05 07:22:59;;;;;;;4.13;1.70;;;28.40;51.70;;;;;;6245980;22;20012;-71
2022/08/05 07:25:25;;;;;;;2.70;1.83;;;28.50;51.60;;;;;;6246273;22;20091;-70
2022/08/05 07:27:52;;;;;;;3.50;1.80;;;28.50;51.30;;;;;;6245652;22;20020;-70
2022/08/05 07:30:18;;;;;;;5.25;1.90;;;28.60;51.50;;;;;;6245389;22;20001;-74
2022/08/05 07:32:44;;;;;;;3.28;1.55;;;28.70;51.40;;;;;;6245343;22;19996;-70
2022/08/05 07:35:11;;;;;;;2.47;1.48;;;28.70;50.70;;;;;;6245301;23;20004;-70
2022/08/05 07:37:37;;;;;;;5.72;1.73;;;28.70;50.10;;;;;;6245744;22;20000;-70
2022/08/05 07:40:04;;;;;;;4.40;1.67;;;28.80;49.70;;;;;;6246125;22;20058;-70
2022/08/05 07:42:30;;;;;;;4.40;1.65;;;28.80;49.50;;;;;;6246063;23;20008;-70
2022/08/05 07:44:55;;;;;;;4.78;1.42;;;28.90;50.00;;;;;;6245314;23;20023;-70
2022/08/05 07:47:22;;;;;;;4.00;1.50;;;29.00;48.90;;;;;;6243983;23;20000;-70
2022/08/05 07:49:50;;;;;;;2.72;1.55;;;29.00;48.80;;;;;;6245077;22;20023;-70
2022/08/05 07:52:17;;;;;;;7.60;1.65;;;29.10;48.80;;;;;;6245641;22;20454;-75
2022/08/05 07:54:43;;;;;;;4.38;1.60;;;29.10;49.00;;;;;;6245584;22;20082;-70
2022/08/05 07:57:08;;;;;;;5.45;1.67;;;29.20;49.10;;;;;;6245506;23;20099;-70
2022/08/05 07:59:34;;;;;;;4.68;2.30;;;29.30;48.80;;;;;;6245656;22;20008;-70
2022/08/05 08:02:01;;;;;;;2.35;1.38;;;29.30;48.50;;;;;;6245808;23;20083;-74
2022/08/05 08:04:27;;;;;;;6.00;1.73;;;29.40;48.40;;;;;;6245676;23;20024;-75
2022/08/05 08:06:52;;;;;;;2.03;1.50;;;29.50;48.50;;;;;;6245460;23;20008;-70
2022/08/05 08:09:18;;;;;;;12.70;1.70;;;29.50;48.50;;;;;;6245804;23;20071;-70
2022/08/05 08:11:44;;;;;;;3.25;1.55;;;29.60;48.40;;;;;;6245813;22;20004;-74
2022/08/05 08:14:10;;;;;;;5.13;1.70;;;29.70;47.90;;;;;;6246118;23;20011;-75
2022/08/05 08:16:35;;;;;;;4.82;1.65;;;29.70;47.70;;;;;;6246126;23;20079;-70
2022/08/05 08:19:01;;;;;;;5.90;2.38;;;29.80;47.70;;;;;;6246226;23;20023;-69
2022/08/05 08:21:26;;;;;;;5.13;1.52;;;29.90;47.40;;;;;;6245813;23;19997;-76
2022/08/05 08:23:52;;;;;;;4.82;1.60;;;30.00;47.20;;;;;;6246089;22;20077;-75
2022/08/05 08:26:18;;;;;;;6.47;1.63;;;30.00;47.00;;;;;;6245814;23;19996;-75
2022/08/05 08:28:43;;;;;;;6.38;1.80;;;30.10;46.90;;;;;;6245654;22;20117;-75
2022/08/05 08:31:09;;;;;;;2.72;1.60;;;30.20;47.10;;;;;;6246068;23;20000;-69
2022/08/05 08:33:35;;;;;;;4.88;1.60;;;30.30;47.00;;;;;;6245716;23;20110;-70
2022/08/05 08:36:00;;;;;;;10.73;1.67;;;30.30;46.90;;;;;;6245623;22;20000;-75
2022/08/05 08:38:26;;;;;;;2.95;1.33;;;30.40;46.70;;;;;;6245963;23;20020;-74
2022/08/05 08:40:52;;;;;;;5.30;1.50;;;30.50;46.60;;;;;;6245427;23;20003;-75
2022/08/05 08:43:20;;;;;;;12.05;1.70;;;30.50;46.40;;;;;;6245871;22;20385;-75
2022/08/05 08:45:48;;;;;;;2.72;1.67;;;30.70;46.30;;;;;;6246012;22;20347;-75
2022/08/05 08:48:15;;;;;;;7.00;1.70;;;30.80;46.20;;;;;;6245668;23;20035;-75
2022/08/05 08:50:43;;;;;;;4.63;1.70;;;30.80;46.00;;;;;;6246020;22;20011;-71
2022/08/05 08:53:13;;;;;;;10.85;1.70;;;30.90;46.10;;;;;;6245853;22;20296;-71
2022/08/05 08:55:40;;;;;;;6.75;1.60;;;30.90;46.10;;;;;;6245693;22;20001;-70
2022/08/05 08:58:06;;;;;;;6.32;1.55;;;31.00;46.10;;;;;;6245477;22;20008;-69
2022/08/05 09:00:32;;;;;;;5.68;1.60;;;31.00;45.90;;;;;;6246274;22;20007;-75
2022/08/05 09:02:59;;;;;;;4.63;1.67;;;31.10;46.00;;;;;;6247323;22;20339;-69
2022/08/05 09:05:24;;;;;;;5.30;1.88;;;31.20;46.20;;;;;;6247354;22;20016;-70
2022/08/05 09:07:52;;;;;;;3.22;1.58;;;31.20;45.90;;;;;;6247294;22;20031;-70
2022/08/05 09:10:19;;;;;;;7.28;1.60;;;31.30;46.00;;;;;;6247777;22;20008;-70
2022/08/05 09:12:45;;;;;;;5.10;1.40;;;31.40;46.10;;;;;;6247414;22;20004;-70
2022/08/05 09:15:11;;;;;;;2.88;1.50;;;31.40;45.60;;;;;;6247119;22;20477;-70
2022/08/05 09:17:37;;;;;;;5.32;1.70;;;31.50;45.60;;;;;;6247468;22;20012;-75
2022/08/05 09:20:04;;;;;;;3.80;1.45;;;31.50;45.60;;;;;;6246959;22;20398;-74
2022/08/05 09:23:11;;;;;;;6.03;1.52;;;31.60;45.70;;;;;;6246940;23;20036;-70
2022/08/05 09:25:42;;;;;;;4.00;1.42;;;31.70;45.40;;;;;;6246667;22;20083;-70
2022/08/05 09:28:16;;;;;;;4.60;1.50;;;31.70;44.50;;;;;;6246755;22;20016;-75
2022/08/05 09:30:56;;;;;;;5.03;1.90;;;31.80;45.20;;;;;;6246700;22;20008;-70
2022/08/05 09:33:22;;;;;;;4.97;1.70;;;31.80;44.80;;;;;;6246981;22;20435;-75
2022/08/05 09:36:03;;;;;;;2.55;1.30;;;31.90;45.00;;;;;;6247231;22;20008;-71
2022/08/05 09:38:29;;;;;;;4.30;2.05;;;32.00;44.40;;;;;;6246822;22;20000;-71
2022/08/05 09:41:03;;;;;;;2.35;1.50;;;32.00;44.00;;;;;;6246766;22;19996;-72
2022/08/05 09:43:32;;;;;;;3.20;1.50;;;32.00;43.90;;;;;;6247047;22;20031;-75
2022/08/05 09:45:58;;;;;;;8.55;1.70;;;32.10;44.20;;;;;;6246348;22;20147;-71
2022/08/05 09:48:28;;;;;;;6.75;1.50;;;32.10;44.30;;;;;;6247041;22;20338;-71
2022/08/05 09:51:02;;;;;;;5.93;1.75;;;32.20;44.50;;;;;;6247262;22;20000;-70
2022/08/05 09:53:29;;;;;;;2.78;1.50;;;32.20;44.20;;;;;;6246771;22;20058;-71
2022/08/05 09:56:00;;;;;;;9.43;1.80;;;32.30;43.90;;;;;;6246495;22;20426;-73
2022/08/05 09:58:27;;;;;;;5.33;1.67;;;32.40;43.30;;;;;;6246594;23;19996;-70
2022/08/05 10:01:00;;;;;;;2.90;1.70;;;32.40;43.30;;;;;;6246629;22;20231;-70
2022/08/05 10:03:26;;;;;;;5.72;1.40;;;32.50;43.00;;;;;;6246494;22;20492;-74
2022/08/05 10:06:05;;;;;;;7.22;2.22;;;32.50;43.00;;;;;;6246275;22;20062;-69
2022/08/05 10:08:31;;;;;;;9.38;1.48;;;32.60;43.30;;;;;;6246736;22;20055;-69
2022/08/05 10:10:57;;;;;;;3.63;1.42;;;32.60;43.20;;;;;;6246485;23;20004;-74
2022/08/05 10:13:36;;;;;;;5.65;1.50;;;32.70;42.80;;;;;;6246812;23;20331;-68
2022/08/05 10:16:04;;;;;;;6.72;1.33;;;32.70;42.30;;;;;;6246845;22;20007;-70
2022/08/05 10:18:31;;;;;;;7.35;1.73;;;32.80;42.40;;;;;;6246666;22;20015;-70
2022/08/05 10:21:00;;;;;;;7.18;1.20;;;32.80;42.10;;;;;;6246240;23;20122;-73
2022/08/05 10:23:34;;;;;;;8.65;1.33;;;32.80;41.50;;;;;;6246285;22;20434;-73
2022/08/05 10:26:02;;;;;;;2.47;1.23;;;32.90;41.30;;;;;;6246203;22;20450;-70
2022/08/05 10:28:29;;;;;;;10.00;1.30;;;32.90;41.60;;;;;;6246001;22;20036;-70
2022/08/05 10:30:55;;;;;;;6.30;1.40;;;32.90;42.30;;;;;;6242861;22;20066;-73
2022/08/05 10:33:24;;;;;;;7.93;1.50;;;33.00;42.60;;;;;;6243372;22;20365;-74
2022/08/05 10:35:51;;;;;;;4.88;1.38;;;33.00;42.30;;;;;;6244706;22;20012;-75
2022/08/05 10:38:22;;;;;;;3.47;1.52;;;33.10;41.70;;;;;;6245568;22;19997;-70
2022/08/05 10:40:55;;;;;;;7.45;1.40;;;33.10;41.40;;;;;;6246154;22;20007;-69
2022/08/05 10:43:44;;;;;;;6.43;1.33;;;33.10;41.60;;;;;;6246118;22;20304;-70
2022/08/05 10:46:13;;;;;;;3.35;1.42;;;33.20;41.60;;;;;;6246237;23;20012;-69
2022/08/05 10:48:53;;;;;;;6.95;1.48;;;33.30;41.80;;;;;;6246016;22;20426;-75
2022/08/05 10:51:20;;;;;;;12.48;1.60;;;33.30;41.60;;;;;;6245842;22;20007;-70
2022/08/05 10:53:53;;;;;;;6.90;1.40;;;33.40;41.60;;;;;;6246074;22;20382;-71
2022/08/05 10:56:22;;;;;;;8.10;1.80;;;33.40;41.70;;;;;;6245980;22;20004;-69
2022/08/05 10:58:53;;;;;;;3.90;1.52;;;33.40;41.80;;;;;;6245414;22;20031;-69
2022/08/05 11:01:37;;;;;;;6.78;1.48;;;33.50;41.70;;;;;;6246009;22;20387;-70
2022/08/05 11:04:15;;;;;;;4.07;1.10;;;33.50;41.40;;;;;;6245063;22;20437;-69
2022/08/05 11:06:56;;;;;;;8.60;1.48;;;33.50;41.30;;;;;;6243627;22;20012;-70
2022/08/05 11:09:24;;;;;;;11.63;1.85;;;33.60;41.40;;;;;;6242560;22;20023;-71
2022/08/05 11:11:55;;;;;;;1.80;1.40;;;33.60;41.40;;;;;;6244424;22;20004;-70
2022/08/05 11:14:26;;;;;;;1.35;1.13;;;33.70;41.50;;;;;;6242932;22;20023;-71
2022/08/05 11:17:26;;;;;;;4.00;1.40;;;33.70;41.30;;;;;;6242554;22;20391;-70
2022/08/05 11:19:54;;;;;;;4.15;1.45;;;33.80;41.40;;;;;;6245497;23;20054;-70
2022/08/05 11:22:43;;;;;;;8.80;1.40;;;33.80;41.40;;;;;;6246052;22;20372;-71
2022/08/05 11:25:36;;;;;;;4.95;1.50;;;33.90;41.60;;;;;;6245978;22;20382;-74
2022/08/05 11:28:10;;;;;;;7.68;1.60;;;33.90;41.20;;;;;;6245951;22;20019;-70
2022/08/05 11:30:57;;;;;;;6.20;1.48;;;34.00;41.10;;;;;;6246115;23;20066;-74
2022/08/05 11:33:29;;;;;;;4.97;1.73;;;34.00;41.10;;;;;;6246110;22;20442;-70
2022/08/05 11:35:58;;;;;;;4.80;1.45;;;34.00;41.00;;;;;;6245890;23;20012;-70
2022/08/05 11:38:42;;;;;;;6.82;1.50;;;34.00;40.80;;;;;;6243327;23;20095;-71
2022/08/05 11:41:22;;;;;;;6.03;1.60;;;34.10;40.80;;;;;;6242411;23;20027;-71
2022/08/05 11:43:59;;;;;;;3.78;1.70;;;34.10;41.00;;;;;;6242826;22;20016;-71
2022/08/05 11:46:33;;;;;;;2.95;1.33;;;34.10;40.80;;;;;;6245889;22;20004;-71
2022/08/05 11:48:59;;;;;;;2.83;2.00;;;34.20;40.80;;;;;;6245765;22;20012;-70
2022/08/05 11:51:27;;;;;;;2.75;1.42;;;34.20;41.00;;;;;;6245548;22;19996;-70
2022/08/05 11:53:54;;;;;;;17.73;2.20;;;34.20;40.80;;;;;;6244994;22;20004;-75
2022/08/05 11:56:19;;;;;;;5.90;1.52;;;34.30;40.90;;;;;;6245375;22;19996;-74
2022/08/05 11:58:47;;;;;;;11.10;1.60;;;34.30;40.90;;;;;;6245331;22;20075;-71
2022/08/05 12:01:18;;;;;;;8.40;1.95;;;34.30;41.00;;;;;;6245396;22;20479;-75
2022/08/05 12:03:45;;;;;;;4.25;1.40;;;34.40;40.90;;;;;;6245990;22;20004;-69
2022/08/05 12:06:13;;;;;;;6.63;1.65;;;34.40;40.70;;;;;;6245882;22;20012;-70
2022/08/05 12:08:47;;;;;;;3.33;1.80;;;34.40;40.50;;;;;;6245786;22;20054;-69
2022/08/05 12:11:33;;;;;;;3.70;1.45;;;34.50;40.50;;;;;;6245711;22;20071;-71
2022/08/05 12:14:04;;;;;;;6.07;1.50;;;34.50;40.40;;;;;;6245343;23;20066;-70
2022/08/05 12:16:35;;;;;;;5.03;1.45;;;34.50;40.30;;;;;;6245725;22;20453;-71
2022/08/05 12:19:02;;;;;;;2.88;1.40;;;34.60;40.70;;;;;;6245780;22;20005;-70
2022/08/05 12:21:30;;;;;;;4.55;1.27;;;34.60;40.40;;;;;;6245880;22;20423;-71
2022/08/05 12:24:07;;;;;;;8.30;1.70;;;34.60;40.50;;;;;;6245484;22;20066;-70
2022/08/05 12:26:52;;;;;;;5.60;1.40;;;34.70;40.60;;;;;;6245939;22;20032;-71
2022/08/05 12:29:25;;;;;;;4.82;1.60;;;34.70;40.30;;;;;;6245638;22;20060;-70
2022/08/05 12:31:56;;;;;;;2.83;1.48;;;34.80;40.20;;;;;;6245817;22;20004;-70
2022/08/05 12:34:27;;;;;;;6.25;1.60;;;34.80;40.10;;;;;;6246491;22;20000;-71
2022/08/05 12:36:54;;;;;;;1.80;1.30;;;34.80;40.00;;;;;;6248141;22;20130;-73
2022/08/05 12:39:22;;;;;;;13.05;2.00;;;34.80;39.90;;;;;;6247588;22;20051;-70
2022/08/05 12:41:48;;;;;;;5.97;1.30;;;34.80;39.80;;;;;;6247331;22;20457;-71
2022/08/05 12:44:16;;;;;;;5.57;1.60;;;34.90;40.10;;;;;;6247436;23;20008;-70
2022/08/05 12:46:50;;;;;;;2.53;1.58;;;34.80;39.90;;;;;;6247757;22;20008;-70
2022/08/05 12:49:16;;;;;;;4.32;1.30;;;34.90;39.80;;;;;;6247526;22;20024;-73
2022/08/05 12:51:44;;;;;;;5.80;1.77;;;34.90;40.00;;;;;;6247909;23;20000;-73
2022/08/05 12:54:10;;;;;;;3.03;1.48;;;34.90;40.20;;;;;;6247428;22;19997;-70
2022/08/05 12:56:42;;;;;;;3.78;1.55;;;34.90;40.20;;;;;;6247489;22;20015;-70
2022/08/05 12:59:18;;;;;;;7.43;1.58;;;35.00;40.00;;;;;;6247379;22;20003;-70